sensor_id;sensor_type;location;lat;lon;timestamp;P1;P2;P0
30713;PMS7003;17465;47.934;33.430;2023-05-31T00:01:17;17.60;15.20;10.40
30713;PMS7003;17465;47.934;33.430;2023-05-31T00:03:47;18.40;18.40;12.00
30713;PMS7003;17465;47.934;33.430;2023-05-31T00:06:18;20.80;16.00;11.80
30713;PMS7003;17465;47.934;33.430;2023-05-31T00:08:48;15.00;14.40;9.00
30713;PMS7003;17465;47.934;33.430;2023-05-31T00:11:19;16.60;16.20;10.80
30713;PMS7003;17465;47.934;33.430;2023-05-31T00:13:49;16.00;16.00;9.80
30713;PMS7003;17465;47.934;33.430;2023-05-31T00:16:20;16.80;16.80;11.20
30713;PMS7003;17465;47.934;33.430;2023-05-31T00:18:51;15.60;15.60;11.40
30713;PMS7003;17465;47.934;33.430;2023-05-31T00:21:22;17.20;15.40;10.80
30713;PMS7003;17465;47.934;33.430;2023-05-31T00:23:52;18.80;17.40;12.00
30713;PMS7003;17465;47.934;33.430;2023-05-31T00:26:23;14.60;13.40;7.20
30713;PMS7003;17465;47.934;33.430;2023-05-31T00:28:53;21.00;17.80;11.60
30713;PMS7003;17465;47.934;33.430;2023-05-31T00:31:23;19.60;19.60;11.20
30713;PMS7003;17465;47.934;33.430;2023-05-31T00:33:54;20.20;18.80;12.40
30713;PMS7003;17465;47.934;33.430;2023-05-31T00:36:26;18.40;16.80;11.20
30713;PMS7003;17465;47.934;33.430;2023-05-31T00:38:56;19.80;17.40;11.80
30713;PMS7003;17465;47.934;33.430;2023-05-31T00:41:29;19.20;19.20;11.40
30713;PMS7003;17465;47.934;33.430;2023-05-31T00:44:00;21.00;20.80;13.80
30713;PMS7003;17465;47.934;33.430;2023-05-31T00:46:34;19.60;19.60;12.60
30713;PMS7003;17465;47.934;33.430;2023-05-31T00:49:07;20.40;20.40;13.80
30713;PMS7003;17465;47.934;33.430;2023-05-31T00:51:38;23.40;22.00;15.80
30713;PMS7003;17465;47.934;33.430;2023-05-31T00:54:09;19.40;19.40;13.80
30713;PMS7003;17465;47.934;33.430;2023-05-31T00:56:39;18.60;18.60;13.00
30713;PMS7003;17465;47.934;33.430;2023-05-31T00:59:10;20.40;19.40;13.00
30713;PMS7003;17465;47.934;33.430;2023-05-31T01:01:44;20.80;20.80;12.80
30713;PMS7003;17465;47.934;33.430;2023-05-31T01:04:13;18.60;18.60;11.80
30713;PMS7003;17465;47.934;33.430;2023-05-31T01:06:45;25.60;23.40;15.40
30713;PMS7003;17465;47.934;33.430;2023-05-31T01:09:15;29.60;28.40;18.80
30713;PMS7003;17465;47.934;33.430;2023-05-31T01:20:35;34.75;31.75;21.00
30713;PMS7003;17465;47.934;33.430;2023-05-31T01:23:05;35.75;30.75;19.75
30713;PMS7003;17465;47.934;33.430;2023-05-31T01:28:45;38.75;33.50;22.00
30713;PMS7003;17465;47.934;33.430;2023-05-31T01:31:20;35.75;32.75;21.00
30713;PMS7003;17465;47.934;33.430;2023-05-31T01:33:51;35.00;29.75;19.75
30713;PMS7003;17465;47.934;33.430;2023-05-31T01:36:22;25.50;23.00;16.75
30713;PMS7003;17465;47.934;33.430;2023-05-31T01:38:53;26.25;25.25;15.50
30713;PMS7003;17465;47.934;33.430;2023-05-31T01:41:23;27.75;26.75;17.25
30713;PMS7003;17465;47.934;33.430;2023-05-31T01:43:56;33.25;29.25;18.25
30713;PMS7003;17465;47.934;33.430;2023-05-31T01:46:28;25.75;25.75;15.75
30713;PMS7003;17465;47.934;33.430;2023-05-31T01:48:59;22.75;22.75;15.25
30713;PMS7003;17465;47.934;33.430;2023-05-31T01:51:31;26.25;25.25;15.00
30713;PMS7003;17465;47.934;33.430;2023-05-31T01:54:04;22.00;21.25;14.75
30713;PMS7003;17465;47.934;33.430;2023-05-31T01:56:37;24.75;22.75;15.00
30713;PMS7003;17465;47.934;33.430;2023-05-31T01:59:09;26.75;24.50;15.00
30713;PMS7003;17465;47.934;33.430;2023-05-31T02:01:41;22.50;21.00;14.00
30713;PMS7003;17465;47.934;33.430;2023-05-31T02:04:12;22.75;22.25;14.75
30713;PMS7003;17465;47.934;33.430;2023-05-31T02:06:43;21.50;21.25;12.25
30713;PMS7003;17465;47.934;33.430;2023-05-31T02:09:15;26.60;25.20;16.00
30713;PMS7003;17465;47.934;33.430;2023-05-31T02:11:46;26.25;25.25;16.00
30713;PMS7003;17465;47.934;33.430;2023-05-31T02:14:16;21.75;21.25;14.25
30713;PMS7003;17465;47.934;33.430;2023-05-31T02:16:46;15.00;14.25;11.50
30713;PMS7003;17465;47.934;33.430;2023-05-31T02:19:17;20.00;18.50;13.25
30713;PMS7003;17465;47.934;33.430;2023-05-31T02:21:47;19.60;19.60;13.60
30713;PMS7003;17465;47.934;33.430;2023-05-31T02:24:18;23.00;23.00;14.00
30713;PMS7003;17465;47.934;33.430;2023-05-31T02:26:48;21.75;19.00;13.25
30713;PMS7003;17465;47.934;33.430;2023-05-31T02:29:18;20.40;18.00;11.40
30713;PMS7003;17465;47.934;33.430;2023-05-31T02:31:49;21.25;21.25;14.50
30713;PMS7003;17465;47.934;33.430;2023-05-31T02:34:19;17.40;17.00;11.60
30713;PMS7003;17465;47.934;33.430;2023-05-31T02:36:49;21.80;20.40;12.00
30713;PMS7003;17465;47.934;33.430;2023-05-31T02:39:19;23.00;22.25;14.25
30713;PMS7003;17465;47.934;33.430;2023-05-31T02:41:50;22.50;21.50;15.00
30713;PMS7003;17465;47.934;33.430;2023-05-31T02:44:42;24.75;23.00;15.75
30713;PMS7003;17465;47.934;33.430;2023-05-31T02:47:13;21.75;20.75;12.25
30713;PMS7003;17465;47.934;33.430;2023-05-31T02:49:43;18.00;18.00;11.00
30713;PMS7003;17465;47.934;33.430;2023-05-31T02:52:13;26.75;25.00;17.00
30713;PMS7003;17465;47.934;33.430;2023-05-31T02:54:44;18.25;18.25;13.00
30713;PMS7003;17465;47.934;33.430;2023-05-31T02:57:14;23.60;21.00;13.00
30713;PMS7003;17465;47.934;33.430;2023-05-31T02:59:57;22.00;22.00;14.25
30713;PMS7003;17465;47.934;33.430;2023-05-31T03:02:35;19.00;19.00;14.25
30713;PMS7003;17465;47.934;33.430;2023-05-31T03:05:05;20.00;20.00;14.50
30713;PMS7003;17465;47.934;33.430;2023-05-31T03:07:37;26.00;24.50;14.25
30713;PMS7003;17465;47.934;33.430;2023-05-31T03:10:08;25.00;23.25;16.00
30713;PMS7003;17465;47.934;33.430;2023-05-31T03:12:38;22.50;20.25;13.25
30713;PMS7003;17465;47.934;33.430;2023-05-31T03:15:09;24.75;24.75;16.75
30713;PMS7003;17465;47.934;33.430;2023-05-31T03:17:39;21.00;21.00;13.50
30713;PMS7003;17465;47.934;33.430;2023-05-31T03:20:10;20.60;20.00;13.80
30713;PMS7003;17465;47.934;33.430;2023-05-31T03:22:40;20.80;19.00;13.20
30713;PMS7003;17465;47.934;33.430;2023-05-31T03:25:11;24.00;24.00;15.75
30713;PMS7003;17465;47.934;33.430;2023-05-31T03:27:41;20.60;19.80;13.00
30713;PMS7003;17465;47.934;33.430;2023-05-31T03:30:13;21.50;20.00;14.25
30713;PMS7003;17465;47.934;33.430;2023-05-31T03:32:44;25.00;23.00;15.00
30713;PMS7003;17465;47.934;33.430;2023-05-31T03:35:14;24.00;24.00;15.20
30713;PMS7003;17465;47.934;33.430;2023-05-31T03:37:44;24.60;24.40;15.80
30713;PMS7003;17465;47.934;33.430;2023-05-31T03:40:15;21.80;21.80;13.20
30713;PMS7003;17465;47.934;33.430;2023-05-31T03:42:46;24.40;23.20;15.40
30713;PMS7003;17465;47.934;33.430;2023-05-31T03:45:19;22.00;20.20;13.00
30713;PMS7003;17465;47.934;33.430;2023-05-31T03:47:49;23.00;21.50;13.50
30713;PMS7003;17465;47.934;33.430;2023-05-31T03:50:19;22.00;21.40;14.60
30713;PMS7003;17465;47.934;33.430;2023-05-31T03:52:50;22.40;22.20;15.40
30713;PMS7003;17465;47.934;33.430;2023-05-31T03:55:20;23.60;20.60;13.80
30713;PMS7003;17465;47.934;33.430;2023-05-31T03:57:51;23.80;22.80;15.00
30713;PMS7003;17465;47.934;33.430;2023-05-31T04:00:24;21.80;21.80;14.60
30713;PMS7003;17465;47.934;33.430;2023-05-31T04:02:54;23.20;22.80;14.00
30713;PMS7003;17465;47.934;33.430;2023-05-31T04:05:35;19.40;19.40;13.60
30713;PMS7003;17465;47.934;33.430;2023-05-31T04:08:00;23.40;21.00;12.40
30713;PMS7003;17465;47.934;33.430;2023-05-31T04:10:31;23.20;22.60;14.60
30713;PMS7003;17465;47.934;33.430;2023-05-31T04:13:02;18.00;15.40;11.00
30713;PMS7003;17465;47.934;33.430;2023-05-31T04:15:33;19.00;17.00;12.20
30713;PMS7003;17465;47.934;33.430;2023-05-31T04:18:03;21.40;21.40;15.20
30713;PMS7003;17465;47.934;33.430;2023-05-31T04:20:34;19.20;17.40;11.40
30713;PMS7003;17465;47.934;33.430;2023-05-31T04:23:04;16.80;15.80;10.80
30713;PMS7003;17465;47.934;33.430;2023-05-31T04:25:35;18.80;17.80;13.00
30713;PMS7003;17465;47.934;33.430;2023-05-31T04:28:06;15.40;15.00;10.80
30713;PMS7003;17465;47.934;33.430;2023-05-31T04:30:36;19.80;18.60;14.00
30713;PMS7003;17465;47.934;33.430;2023-05-31T04:33:07;18.00;18.00;12.80
30713;PMS7003;17465;47.934;33.430;2023-05-31T04:35:37;19.60;17.60;10.40
30713;PMS7003;17465;47.934;33.430;2023-05-31T04:38:08;21.00;17.40;12.40
30713;PMS7003;17465;47.934;33.430;2023-05-31T04:40:38;18.80;16.60;10.20
30713;PMS7003;17465;47.934;33.430;2023-05-31T04:43:08;17.40;17.40;10.60
30713;PMS7003;17465;47.934;33.430;2023-05-31T04:45:39;17.00;17.00;12.60
30713;PMS7003;17465;47.934;33.430;2023-05-31T04:48:09;19.60;19.60;12.20
30713;PMS7003;17465;47.934;33.430;2023-05-31T04:50:40;12.80;12.80;8.00
30713;PMS7003;17465;47.934;33.430;2023-05-31T04:53:10;13.00;13.00;8.80
30713;PMS7003;17465;47.934;33.430;2023-05-31T04:55:41;15.00;15.00;10.40
30713;PMS7003;17465;47.934;33.430;2023-05-31T04:58:12;15.20;15.20;11.40
30713;PMS7003;17465;47.934;33.430;2023-05-31T05:00:42;13.60;12.20;8.20
30713;PMS7003;17465;47.934;33.430;2023-05-31T05:03:13;16.40;16.40;9.20
30713;PMS7003;17465;47.934;33.430;2023-05-31T05:05:44;16.20;15.00;9.20
30713;PMS7003;17465;47.934;33.430;2023-05-31T05:08:14;13.20;13.00;8.00
30713;PMS7003;17465;47.934;33.430;2023-05-31T05:10:45;13.00;13.00;8.80
30713;PMS7003;17465;47.934;33.430;2023-05-31T05:13:17;13.00;13.00;9.20
30713;PMS7003;17465;47.934;33.430;2023-05-31T05:15:47;14.00;14.00;9.20
30713;PMS7003;17465;47.934;33.430;2023-05-31T05:18:18;12.40;9.00;7.20
30713;PMS7003;17465;47.934;33.430;2023-05-31T05:20:48;13.80;13.80;9.60
30713;PMS7003;17465;47.934;33.430;2023-05-31T05:23:19;13.80;13.80;9.80
30713;PMS7003;17465;47.934;33.430;2023-05-31T05:25:50;12.00;12.00;8.20
30713;PMS7003;17465;47.934;33.430;2023-05-31T05:28:22;12.20;9.80;6.40
30713;PMS7003;17465;47.934;33.430;2023-05-31T05:30:52;16.40;15.60;10.00
30713;PMS7003;17465;47.934;33.430;2023-05-31T05:33:23;9.20;9.20;6.60
30713;PMS7003;17465;47.934;33.430;2023-05-31T05:35:53;7.80;7.80;5.00
30713;PMS7003;17465;47.934;33.430;2023-05-31T05:38:24;17.40;14.60;9.20
30713;PMS7003;17465;47.934;33.430;2023-05-31T05:40:54;15.60;15.60;11.00
30713;PMS7003;17465;47.934;33.430;2023-05-31T05:43:25;14.00;14.00;10.00
30713;PMS7003;17465;47.934;33.430;2023-05-31T05:45:55;14.60;12.80;9.00
30713;PMS7003;17465;47.934;33.430;2023-05-31T05:48:25;16.40;16.40;11.20
30713;PMS7003;17465;47.934;33.430;2023-05-31T05:50:58;10.40;10.40;7.60
30713;PMS7003;17465;47.934;33.430;2023-05-31T05:53:30;13.80;12.00;8.80
30713;PMS7003;17465;47.934;33.430;2023-05-31T05:56:00;12.40;12.40;8.00
30713;PMS7003;17465;47.934;33.430;2023-05-31T05:58:36;14.80;13.00;9.00
30713;PMS7003;17465;47.934;33.430;2023-05-31T06:01:09;12.00;12.00;8.00
30713;PMS7003;17465;47.934;33.430;2023-05-31T06:03:40;12.40;11.60;7.00
30713;PMS7003;17465;47.934;33.430;2023-05-31T06:06:11;15.00;14.40;9.20
30713;PMS7003;17465;47.934;33.430;2023-05-31T06:08:41;12.80;12.80;9.40
30713;PMS7003;17465;47.934;33.430;2023-05-31T06:11:12;11.60;10.60;8.00
30713;PMS7003;17465;47.934;33.430;2023-05-31T06:13:44;12.60;12.60;8.80
30713;PMS7003;17465;47.934;33.430;2023-05-31T06:16:15;12.00;12.00;9.40
30713;PMS7003;17465;47.934;33.430;2023-05-31T06:18:48;12.20;12.20;8.40
30713;PMS7003;17465;47.934;33.430;2023-05-31T06:21:18;10.00;10.00;6.80
30713;PMS7003;17465;47.934;33.430;2023-05-31T06:23:49;13.80;12.60;8.80
30713;PMS7003;17465;47.934;33.430;2023-05-31T06:26:20;11.20;11.20;7.80
30713;PMS7003;17465;47.934;33.430;2023-05-31T06:28:50;8.00;8.00;5.00
30713;PMS7003;17465;47.934;33.430;2023-05-31T06:31:20;9.40;9.40;7.60
30713;PMS7003;17465;47.934;33.430;2023-05-31T06:33:50;11.20;10.20;6.40
30713;PMS7003;17465;47.934;33.430;2023-05-31T06:36:21;11.00;11.00;7.40
30713;PMS7003;17465;47.934;33.430;2023-05-31T06:38:52;9.00;8.60;6.80
30713;PMS7003;17465;47.934;33.430;2023-05-31T06:41:22;12.40;12.20;8.20
30713;PMS7003;17465;47.934;33.430;2023-05-31T06:43:53;10.00;10.00;8.00
30713;PMS7003;17465;47.934;33.430;2023-05-31T06:46:25;11.60;11.60;8.80
30713;PMS7003;17465;47.934;33.430;2023-05-31T06:48:55;9.20;9.20;7.20
30713;PMS7003;17465;47.934;33.430;2023-05-31T06:51:27;9.40;6.80;3.00
30713;PMS7003;17465;47.934;33.430;2023-05-31T06:53:57;10.20;10.20;6.60
30713;PMS7003;17465;47.934;33.430;2023-05-31T06:56:29;11.80;11.00;6.40
30713;PMS7003;17465;47.934;33.430;2023-05-31T06:59:01;8.60;8.60;4.20
30713;PMS7003;17465;47.934;33.430;2023-05-31T07:01:32;9.00;7.40;6.00
30713;PMS7003;17465;47.934;33.430;2023-05-31T07:04:02;10.20;10.00;6.00
30713;PMS7003;17465;47.934;33.430;2023-05-31T07:06:33;9.00;7.80;5.40
30713;PMS7003;17465;47.934;33.430;2023-05-31T07:09:04;9.20;9.20;7.80
30713;PMS7003;17465;47.934;33.430;2023-05-31T07:11:34;10.60;9.40;7.00
30713;PMS7003;17465;47.934;33.430;2023-05-31T07:14:05;7.60;7.60;5.60
30713;PMS7003;17465;47.934;33.430;2023-05-31T07:16:35;8.60;8.60;6.00
30713;PMS7003;17465;47.934;33.430;2023-05-31T07:19:06;9.40;9.40;7.00
30713;PMS7003;17465;47.934;33.430;2023-05-31T07:21:36;9.80;9.40;6.40
30713;PMS7003;17465;47.934;33.430;2023-05-31T07:24:06;9.40;9.40;6.80
30713;PMS7003;17465;47.934;33.430;2023-05-31T07:26:37;7.80;7.80;5.00
30713;PMS7003;17465;47.934;33.430;2023-05-31T07:29:08;8.00;8.00;6.60
30713;PMS7003;17465;47.934;33.430;2023-05-31T07:31:43;10.20;10.20;6.20
30713;PMS7003;17465;47.934;33.430;2023-05-31T07:34:13;7.40;7.40;5.60
30713;PMS7003;17465;47.934;33.430;2023-05-31T07:36:47;7.40;7.40;5.20
30713;PMS7003;17465;47.934;33.430;2023-05-31T07:39:26;10.80;9.80;8.00
30713;PMS7003;17465;47.934;33.430;2023-05-31T07:41:56;9.00;8.00;6.40
30713;PMS7003;17465;47.934;33.430;2023-05-31T07:44:27;9.40;9.40;6.00
30713;PMS7003;17465;47.934;33.430;2023-05-31T07:46:57;8.40;8.40;6.80
30713;PMS7003;17465;47.934;33.430;2023-05-31T07:49:27;7.60;7.60;6.00
30713;PMS7003;17465;47.934;33.430;2023-05-31T07:51:59;10.60;10.60;6.60
30713;PMS7003;17465;47.934;33.430;2023-05-31T07:54:29;6.20;6.20;4.80
30713;PMS7003;17465;47.934;33.430;2023-05-31T07:57:03;6.40;6.40;5.60
30713;PMS7003;17465;47.934;33.430;2023-05-31T07:59:33;8.40;7.80;5.00
30713;PMS7003;17465;47.934;33.430;2023-05-31T08:02:04;6.40;5.60;4.60
30713;PMS7003;17465;47.934;33.430;2023-05-31T08:04:34;8.60;8.60;6.80
30713;PMS7003;17465;47.934;33.430;2023-05-31T08:07:05;6.80;6.80;5.60
30713;PMS7003;17465;47.934;33.430;2023-05-31T08:09:35;6.80;6.80;6.00
30713;PMS7003;17465;47.934;33.430;2023-05-31T08:12:06;7.40;7.40;6.00
30713;PMS7003;17465;47.934;33.430;2023-05-31T08:14:40;9.00;8.40;6.00
30713;PMS7003;17465;47.934;33.430;2023-05-31T08:17:11;7.00;7.00;5.80
30713;PMS7003;17465;47.934;33.430;2023-05-31T08:19:45;7.00;7.00;5.00
30713;PMS7003;17465;47.934;33.430;2023-05-31T08:22:16;8.60;7.60;6.00
30713;PMS7003;17465;47.934;33.430;2023-05-31T08:24:46;7.40;7.40;5.80
30713;PMS7003;17465;47.934;33.430;2023-05-31T08:27:16;7.00;7.00;5.00
30713;PMS7003;17465;47.934;33.430;2023-05-31T08:29:49;7.40;7.40;5.40
30713;PMS7003;17465;47.934;33.430;2023-05-31T08:32:20;8.40;8.40;7.00
30713;PMS7003;17465;47.934;33.430;2023-05-31T08:34:51;7.80;7.80;6.80
30713;PMS7003;17465;47.934;33.430;2023-05-31T08:37:21;8.40;8.40;6.20
30713;PMS7003;17465;47.934;33.430;2023-05-31T08:39:51;6.20;6.20;5.00
30713;PMS7003;17465;47.934;33.430;2023-05-31T08:42:27;8.60;8.60;7.40
30713;PMS7003;17465;47.934;33.430;2023-05-31T08:44:59;7.00;7.00;6.00
30713;PMS7003;17465;47.934;33.430;2023-05-31T08:50:11;6.40;6.40;5.00
30713;PMS7003;17465;47.934;33.430;2023-05-31T08:52:45;7.60;7.60;5.60
30713;PMS7003;17465;47.934;33.430;2023-05-31T08:55:17;8.00;8.00;6.20
30713;PMS7003;17465;47.934;33.430;2023-05-31T08:57:48;8.40;7.20;6.00
30713;PMS7003;17465;47.934;33.430;2023-05-31T09:00:20;10.80;9.20;6.80
30713;PMS7003;17465;47.934;33.430;2023-05-31T09:03:10;7.20;7.20;6.60
30713;PMS7003;17465;47.934;33.430;2023-05-31T09:05:48;7.60;7.20;5.40
30713;PMS7003;17465;47.934;33.430;2023-05-31T09:08:14;9.80;9.80;6.40
30713;PMS7003;17465;47.934;33.430;2023-05-31T09:10:44;8.20;8.20;6.60
30713;PMS7003;17465;47.934;33.430;2023-05-31T09:13:36;8.80;8.40;6.40
30713;PMS7003;17465;47.934;33.430;2023-05-31T09:16:09;11.00;10.00;6.80
30713;PMS7003;17465;47.934;33.430;2023-05-31T09:18:45;6.20;6.00;4.80
30713;PMS7003;17465;47.934;33.430;2023-05-31T09:21:15;6.20;6.20;5.60
30713;PMS7003;17465;47.934;33.430;2023-05-31T09:23:55;6.20;6.20;5.80
30713;PMS7003;17465;47.934;33.430;2023-05-31T09:26:27;7.60;7.60;6.00
30713;PMS7003;17465;47.934;33.430;2023-05-31T09:28:57;8.40;8.40;6.00
30713;PMS7003;17465;47.934;33.430;2023-05-31T09:31:28;7.20;7.20;5.00
30713;PMS7003;17465;47.934;33.430;2023-05-31T09:33:58;5.80;5.80;4.00
30713;PMS7003;17465;47.934;33.430;2023-05-31T09:36:29;7.80;7.20;6.00
30713;PMS7003;17465;47.934;33.430;2023-05-31T09:39:03;7.60;7.60;6.00
30713;PMS7003;17465;47.934;33.430;2023-05-31T09:41:34;5.60;5.60;4.00
30713;PMS7003;17465;47.934;33.430;2023-05-31T09:44:04;6.40;6.40;4.20
30713;PMS7003;17465;47.934;33.430;2023-05-31T09:46:37;7.00;6.80;5.80
30713;PMS7003;17465;47.934;33.430;2023-05-31T09:49:07;8.60;7.00;5.80
30713;PMS7003;17465;47.934;33.430;2023-05-31T09:51:38;10.20;10.20;7.20
30713;PMS7003;17465;47.934;33.430;2023-05-31T09:54:13;7.80;7.80;6.60
30713;PMS7003;17465;47.934;33.430;2023-05-31T09:56:45;9.40;9.40;7.80
30713;PMS7003;17465;47.934;33.430;2023-05-31T09:59:15;6.80;6.80;4.80
30713;PMS7003;17465;47.934;33.430;2023-05-31T10:01:46;7.20;7.00;5.60
30713;PMS7003;17465;47.934;33.430;2023-05-31T10:04:18;6.20;6.20;5.80
30713;PMS7003;17465;47.934;33.430;2023-05-31T10:06:49;7.20;7.20;5.80
30713;PMS7003;17465;47.934;33.430;2023-05-31T10:09:20;7.40;7.40;5.80
30713;PMS7003;17465;47.934;33.430;2023-05-31T10:11:51;9.00;9.00;7.00
30713;PMS7003;17465;47.934;33.430;2023-05-31T10:14:26;6.20;6.20;5.20
30713;PMS7003;17465;47.934;33.430;2023-05-31T10:17:04;7.40;7.20;5.00
30713;PMS7003;17465;47.934;33.430;2023-05-31T10:19:45;7.20;7.20;5.80
30713;PMS7003;17465;47.934;33.430;2023-05-31T10:22:35;9.00;6.20;5.80
30713;PMS7003;17465;47.934;33.430;2023-05-31T10:25:09;7.40;7.40;5.80
30713;PMS7003;17465;47.934;33.430;2023-05-31T10:27:44;7.20;7.20;5.60
30713;PMS7003;17465;47.934;33.430;2023-05-31T10:30:18;6.80;6.80;5.20
30713;PMS7003;17465;47.934;33.430;2023-05-31T10:32:57;10.00;7.80;6.00
30713;PMS7003;17465;47.934;33.430;2023-05-31T10:35:34;6.60;6.60;6.00
30713;PMS7003;17465;47.934;33.430;2023-05-31T10:38:05;8.20;7.40;6.00
30713;PMS7003;17465;47.934;33.430;2023-05-31T10:43:48;7.40;6.00;4.20
30713;PMS7003;17465;47.934;33.430;2023-05-31T10:46:38;10.40;9.20;6.60
30713;PMS7003;17465;47.934;33.430;2023-05-31T10:49:10;9.60;9.20;7.20
30713;PMS7003;17465;47.934;33.430;2023-05-31T10:51:44;8.80;8.80;6.60
30713;PMS7003;17465;47.934;33.430;2023-05-31T10:54:19;9.20;9.20;6.20
30713;PMS7003;17465;47.934;33.430;2023-05-31T10:56:54;9.00;9.00;7.60
30713;PMS7003;17465;47.934;33.430;2023-05-31T10:59:27;6.00;6.00;4.80
30713;PMS7003;17465;47.934;33.430;2023-05-31T11:04:50;7.40;7.40;4.80
30713;PMS7003;17465;47.934;33.430;2023-05-31T11:07:43;6.60;6.60;5.00
30713;PMS7003;17465;47.934;33.430;2023-05-31T11:10:24;7.40;7.40;5.80
30713;PMS7003;17465;47.934;33.430;2023-05-31T11:13:16;6.40;5.60;3.60
30713;PMS7003;17465;47.934;33.430;2023-05-31T11:15:47;7.60;6.80;5.00
30713;PMS7003;17465;47.934;33.430;2023-05-31T11:18:29;10.00;10.00;6.40
30713;PMS7003;17465;47.934;33.430;2023-05-31T11:25:22;6.20;6.20;4.20
30713;PMS7003;17465;47.934;33.430;2023-05-31T11:31:55;8.00;8.00;5.00
30713;PMS7003;17465;47.934;33.430;2023-05-31T11:34:51;5.80;5.80;4.80
30713;PMS7003;17465;47.934;33.430;2023-05-31T11:37:59;6.00;6.00;4.00
30713;PMS7003;17465;47.934;33.430;2023-05-31T11:41:22;7.20;7.20;5.40
30713;PMS7003;17465;47.934;33.430;2023-05-31T11:44:19;8.20;7.60;5.00
30713;PMS7003;17465;47.934;33.430;2023-05-31T11:47:09;10.20;10.20;6.00
30713;PMS7003;17465;47.934;33.430;2023-05-31T11:49:50;6.00;6.00;4.60
30713;PMS7003;17465;47.934;33.430;2023-05-31T11:52:49;7.40;7.40;6.00
30713;PMS7003;17465;47.934;33.430;2023-05-31T11:55:29;9.40;9.40;6.80
30713;PMS7003;17465;47.934;33.430;2023-05-31T11:58:24;9.00;9.00;6.20
30713;PMS7003;17465;47.934;33.430;2023-05-31T12:00:58;9.20;9.20;6.00
30713;PMS7003;17465;47.934;33.430;2023-05-31T12:03:29;9.00;8.00;6.60
30713;PMS7003;17465;47.934;33.430;2023-05-31T12:06:02;8.20;7.00;6.00
30713;PMS7003;17465;47.934;33.430;2023-05-31T12:08:41;10.60;9.00;5.80
30713;PMS7003;17465;47.934;33.430;2023-05-31T12:11:15;7.00;7.00;5.80
30713;PMS7003;17465;47.934;33.430;2023-05-31T12:13:48;8.00;8.00;5.60
30713;PMS7003;17465;47.934;33.430;2023-05-31T12:16:22;10.00;9.80;6.80
30713;PMS7003;17465;47.934;33.430;2023-05-31T12:18:54;7.20;7.20;5.20
30713;PMS7003;17465;47.934;33.430;2023-05-31T12:21:29;6.40;6.40;4.80
30713;PMS7003;17465;47.934;33.430;2023-05-31T12:24:10;8.20;8.00;6.00
30713;PMS7003;17465;47.934;33.430;2023-05-31T12:26:59;8.40;8.40;7.60
30713;PMS7003;17465;47.934;33.430;2023-05-31T12:29:38;8.00;8.00;6.00
30713;PMS7003;17465;47.934;33.430;2023-05-31T12:32:23;9.40;9.40;6.20
30713;PMS7003;17465;47.934;33.430;2023-05-31T12:35:04;7.20;7.20;6.00
30713;PMS7003;17465;47.934;33.430;2023-05-31T12:37:38;10.60;9.20;6.80
30713;PMS7003;17465;47.934;33.430;2023-05-31T12:40:09;7.80;7.00;6.00
30713;PMS7003;17465;47.934;33.430;2023-05-31T12:42:43;7.40;7.40;5.00
30713;PMS7003;17465;47.934;33.430;2023-05-31T13:03:50;9.60;8.60;6.80
30713;PMS7003;17465;47.934;33.430;2023-05-31T13:09:46;9.00;8.20;7.00
30713;PMS7003;17465;47.934;33.430;2023-05-31T13:12:17;8.40;8.40;6.00
30713;PMS7003;17465;47.934;33.430;2023-05-31T13:14:52;9.20;9.00;6.20
30713;PMS7003;17465;47.934;33.430;2023-05-31T13:17:22;7.60;7.00;5.00
30713;PMS7003;17465;47.934;33.430;2023-05-31T13:19:53;9.80;8.80;6.60
30713;PMS7003;17465;47.934;33.430;2023-05-31T13:22:27;7.00;7.00;5.00
30713;PMS7003;17465;47.934;33.430;2023-05-31T13:24:58;11.00;9.60;7.80
30713;PMS7003;17465;47.934;33.430;2023-05-31T13:27:36;9.20;9.20;6.40
30713;PMS7003;17465;47.934;33.430;2023-05-31T13:30:10;7.80;7.80;5.80
30713;PMS7003;17465;47.934;33.430;2023-05-31T13:33:02;7.20;7.00;3.80
30713;PMS7003;17465;47.934;33.430;2023-05-31T13:36:06;8.00;8.00;5.60
30713;PMS7003;17465;47.934;33.430;2023-05-31T13:40:56;8.40;8.40;5.00
30713;PMS7003;17465;47.934;33.430;2023-05-31T13:43:37;9.80;9.80;7.80
30713;PMS7003;17465;47.934;33.430;2023-05-31T13:46:08;10.80;10.80;8.00
30713;PMS7003;17465;47.934;33.430;2023-05-31T13:48:42;7.00;6.00;4.20
30713;PMS7003;17465;47.934;33.430;2023-05-31T13:51:15;10.60;10.60;6.80
30713;PMS7003;17465;47.934;33.430;2023-05-31T13:53:46;10.20;10.20;7.20
30713;PMS7003;17465;47.934;33.430;2023-05-31T13:56:16;8.60;8.40;6.80
30713;PMS7003;17465;47.934;33.430;2023-05-31T13:58:52;9.20;8.00;5.60
30713;PMS7003;17465;47.934;33.430;2023-05-31T14:01:25;8.00;8.00;6.00
30713;PMS7003;17465;47.934;33.430;2023-05-31T14:03:58;8.00;8.00;6.00
30713;PMS7003;17465;47.934;33.430;2023-05-31T14:06:29;7.40;7.40;6.00
30713;PMS7003;17465;47.934;33.430;2023-05-31T14:09:08;10.00;9.00;5.00
30713;PMS7003;17465;47.934;33.430;2023-05-31T14:11:43;9.80;9.00;6.20
30713;PMS7003;17465;47.934;33.430;2023-05-31T14:14:13;14.40;12.20;9.00
30713;PMS7003;17465;47.934;33.430;2023-05-31T14:16:44;9.00;7.60;5.20
30713;PMS7003;17465;47.934;33.430;2023-05-31T14:19:14;14.20;13.60;10.20
30713;PMS7003;17465;47.934;33.430;2023-05-31T14:21:49;11.20;10.40;6.00
30713;PMS7003;17465;47.934;33.430;2023-05-31T14:24:26;9.20;9.00;7.00
30713;PMS7003;17465;47.934;33.430;2023-05-31T14:27:00;10.20;10.20;7.40
30713;PMS7003;17465;47.934;33.430;2023-05-31T14:29:35;10.80;10.80;7.20
30713;PMS7003;17465;47.934;33.430;2023-05-31T14:32:03;11.20;11.20;8.40
30713;PMS7003;17465;47.934;33.430;2023-05-31T14:34:37;10.40;10.20;8.00
30713;PMS7003;17465;47.934;33.430;2023-05-31T14:37:14;11.80;11.80;7.40
30713;PMS7003;17465;47.934;33.430;2023-05-31T14:39:56;10.40;10.40;8.00
30713;PMS7003;17465;47.934;33.430;2023-05-31T14:42:26;9.00;8.60;6.00
30713;PMS7003;17465;47.934;33.430;2023-05-31T14:45:00;9.00;9.00;6.60
30713;PMS7003;17465;47.934;33.430;2023-05-31T14:47:32;12.60;11.20;8.80
30713;PMS7003;17465;47.934;33.430;2023-05-31T14:50:05;11.00;11.00;7.20
30713;PMS7003;17465;47.934;33.430;2023-05-31T14:52:58;10.60;10.60;9.00
30713;PMS7003;17465;47.934;33.430;2023-05-31T14:55:44;12.80;12.60;8.80
30713;PMS7003;17465;47.934;33.430;2023-05-31T14:58:18;13.00;13.00;9.60
30713;PMS7003;17465;47.934;33.430;2023-05-31T15:00:56;11.60;11.60;9.00
30713;PMS7003;17465;47.934;33.430;2023-05-31T15:03:59;12.60;11.00;8.60
30713;PMS7003;17465;47.934;33.430;2023-05-31T15:12:04;9.80;9.80;6.20
30713;PMS7003;17465;47.934;33.430;2023-05-31T15:14:48;11.00;11.00;7.00
30713;PMS7003;17465;47.934;33.430;2023-05-31T15:17:21;9.20;8.20;6.20
30713;PMS7003;17465;47.934;33.430;2023-05-31T15:19:55;10.60;9.20;6.20
30713;PMS7003;17465;47.934;33.430;2023-05-31T15:22:30;11.20;10.40;7.60
30713;PMS7003;17465;47.934;33.430;2023-05-31T15:25:05;12.00;12.00;8.20